Time;durP1;ratioP1;P1;durP2;ratioP2;P2;SDS_P1;SDS_P2;PMS_P1;PMS_P2;Temp;Humidity;BMP_temperature;BMP_pressure;BME280_temperature;BME280_humidity;BME280_pressure;Samples;Min_cycle;Max_cycle;Signal;HPM_P1;HPM_P2
2021/07/16 00:00:15;;;;;;;58.20;3.20;;;16.40;93.80;;;;;;5072869;28;20573;-71
2021/07/16 00:02:43;;;;;;;57.77;2.50;;;16.40;94.10;;;;;;5072462;28;21021;-69
2021/07/16 00:05:11;;;;;;;57.87;2.43;;;16.30;93.80;;;;;;5072768;28;20469;-69
2021/07/16 00:07:39;;;;;;;58.30;2.60;;;16.40;94.10;;;;;;5072829;28;20445;-69
2021/07/16 00:10:08;;;;;;;57.77;2.60;;;16.40;94.10;;;;;;5072649;28;20472;-68
2021/07/16 00:12:35;;;;;;;57.63;2.50;;;16.40;94.10;;;;;;5071453;28;20446;-71
2021/07/16 00:15:02;;;;;;;58.40;2.60;;;16.40;94.30;;;;;;5072574;28;20556;-71
2021/07/16 00:17:30;;;;;;;58.20;3.30;;;16.40;94.30;;;;;;5072566;28;20506;-71
2021/07/16 00:19:57;;;;;;;58.13;2.77;;;16.40;94.30;;;;;;5072484;28;20536;-72
2021/07/16 00:22:24;;;;;;;58.00;2.43;;;16.40;95.00;;;;;;5072195;28;20495;-72
2021/07/16 00:24:51;;;;;;;58.27;2.60;;;16.40;95.30;;;;;;5072557;28;20557;-72
2021/07/16 00:27:18;;;;;;;58.30;3.17;;;16.40;95.70;;;;;;5072594;28;20455;-71
2021/07/16 00:29:45;;;;;;;57.97;2.97;;;16.40;95.90;;;;;;5072529;28;20827;-71
2021/07/16 00:32:11;;;;;;;57.83;2.50;;;16.40;95.70;;;;;;5072140;28;20491;-73
2021/07/16 00:34:40;;;;;;;57.70;2.47;;;16.40;95.90;;;;;;5055553;28;20553;-73
2021/07/16 00:37:07;;;;;;;57.97;2.47;;;16.50;95.80;;;;;;5070596;28;20545;-73
2021/07/16 00:39:34;;;;;;;57.57;2.40;;;16.50;95.70;;;;;;5072576;28;20544;-73
2021/07/16 00:42:01;;;;;;;58.10;2.40;;;16.50;95.80;;;;;;5071868;28;20481;-73
2021/07/16 00:44:29;;;;;;;57.90;2.53;;;16.50;95.70;;;;;;5072131;28;20476;-73
2021/07/16 00:46:56;;;;;;;57.87;2.37;;;16.40;96.00;;;;;;5072116;28;20886;-71
2021/07/16 00:49:23;;;;;;;57.90;2.40;;;16.50;95.50;;;;;;5072049;28;20487;-71
2021/07/16 00:51:51;;;;;;;57.90;2.50;;;16.50;95.50;;;;;;5071607;28;20491;-72
2021/07/16 00:54:19;;;;;;;58.17;2.63;;;16.50;95.60;;;;;;5071904;28;20464;-72
2021/07/16 00:56:46;;;;;;;57.90;2.87;;;16.50;95.60;;;;;;5071809;28;20459;-72
2021/07/16 00:59:15;;;;;;;59.10;3.03;;;16.50;95.10;;;;;;5071937;28;20543;-72
2021/07/16 01:01:43;;;;;;;58.30;2.93;;;16.50;95.30;;;;;;5071555;28;20484;-72
2021/07/16 01:04:10;;;;;;;58.20;2.90;;;16.50;94.80;;;;;;5066575;28;20482;-72
2021/07/16 01:06:37;;;;;;;58.30;3.13;;;16.40;94.80;;;;;;5057852;28;20464;-72
2021/07/16 01:09:06;;;;;;;58.27;2.43;;;16.50;94.90;;;;;;5071952;28;20898;-72
2021/07/16 01:11:33;;;;;;;58.60;2.60;;;16.40;94.20;;;;;;5071559;28;20445;-72
2021/07/16 01:13:59;;;;;;;58.50;2.80;;;16.50;94.60;;;;;;5071804;28;20889;-72
2021/07/16 01:16:27;;;;;;;57.93;3.20;;;16.40;94.40;;;;;;5071727;28;20540;-72
2021/07/16 01:18:54;;;;;;;58.30;2.83;;;16.40;94.60;;;;;;5071528;28;20549;-72
2021/07/16 01:21:23;;;;;;;58.30;3.00;;;16.50;94.60;;;;;;5071872;28;20584;-72
2021/07/16 01:23:52;;;;;;;59.20;4.00;;;16.50;94.50;;;;;;5071270;28;20475;-72
2021/07/16 01:26:19;;;;;;;59.10;3.70;;;16.50;94.90;;;;;;5071779;28;20452;-72
2021/07/16 01:28:46;;;;;;;58.10;2.50;;;16.50;95.40;;;;;;5071624;28;20450;-72
2021/07/16 01:31:14;;;;;;;58.27;3.70;;;16.50;95.20;;;;;;5071302;28;20570;-72
2021/07/16 01:33:42;;;;;;;58.53;2.60;;;16.50;95.20;;;;;;5071472;28;20455;-72
2021/07/16 01:36:09;;;;;;;57.97;2.47;;;16.40;95.00;;;;;;5070250;28;20507;-72
2021/07/16 01:38:36;;;;;;;59.17;3.60;;;16.40;95.20;;;;;;5071444;28;20535;-72
2021/07/16 01:41:04;;;;;;;58.10;3.00;;;16.40;95.30;;;;;;5071209;28;20481;-72
2021/07/16 01:43:31;;;;;;;58.40;3.10;;;16.40;95.30;;;;;;5071138;28;20500;-72
2021/07/16 01:45:58;;;;;;;58.10;2.80;;;16.40;95.40;;;;;;5071325;28;20532;-72
2021/07/16 01:48:25;;;;;;;58.70;3.10;;;16.30;95.50;;;;;;5071632;28;20480;-72
2021/07/16 01:50:52;;;;;;;58.33;3.00;;;16.40;95.90;;;;;;5071357;28;20531;-72
2021/07/16 01:53:19;;;;;;;57.87;2.47;;;16.40;95.90;;;;;;5071103;28;20456;-72
2021/07/16 01:55:47;;;;;;;59.67;3.60;;;16.40;96.00;;;;;;5071273;28;20841;-72
2021/07/16 01:58:16;;;;;;;57.67;2.50;;;16.30;96.30;;;;;;5071681;28;20542;-72
2021/07/16 02:00:45;;;;;;;58.80;3.73;;;16.30;96.40;;;;;;5071441;28;20576;-72
2021/07/16 02:03:13;;;;;;;60.00;3.63;;;16.30;96.60;;;;;;5070995;28;20457;-72
2021/07/16 02:05:42;;;;;;;58.07;2.97;;;16.30;97.00;;;;;;5071270;28;20523;-72
2021/07/16 02:08:13;;;;;;;57.93;2.80;;;16.30;97.20;;;;;;5069986;28;20460;-73
2021/07/16 02:10:40;;;;;;;58.57;3.00;;;16.30;97.50;;;;;;5071172;28;20540;-72
2021/07/16 02:13:07;;;;;;;58.40;3.07;;;16.30;97.40;;;;;;5070811;28;20842;-72
2021/07/16 02:15:37;;;;;;;58.67;3.70;;;16.30;97.30;;;;;;5071269;28;20553;-72
2021/07/16 02:18:04;;;;;;;58.47;3.00;;;16.40;97.40;;;;;;5071311;28;20543;-72
2021/07/16 02:20:33;;;;;;;58.40;3.57;;;16.30;97.40;;;;;;5070992;28;20979;-72
2021/07/16 02:23:01;;;;;;;57.83;2.77;;;16.30;97.20;;;;;;5070754;28;20448;-72
2021/07/16 02:25:29;;;;;;;58.20;3.37;;;16.40;97.60;;;;;;5071338;28;21019;-72
2021/07/16 02:27:58;;;;;;;59.60;4.83;;;16.40;97.50;;;;;;5071011;28;20452;-72
2021/07/16 02:30:27;;;;;;;58.10;3.17;;;16.40;97.70;;;;;;5071190;28;20545;-72
2021/07/16 02:32:55;;;;;;;58.17;2.93;;;16.40;97.40;;;;;;5070762;28;20457;-72
2021/07/16 02:35:23;;;;;;;58.73;3.47;;;16.40;97.50;;;;;;5070950;28;21018;-72
2021/07/16 02:37:50;;;;;;;57.97;2.70;;;16.40;97.40;;;;;;5073160;28;20481;-72
2021/07/16 02:40:18;;;;;;;57.73;2.50;;;16.30;97.30;;;;;;5074408;28;20805;-72
2021/07/16 02:42:45;;;;;;;59.00;3.53;;;16.30;97.00;;;;;;5074236;28;20489;-72
2021/07/16 02:45:14;;;;;;;59.33;4.10;;;16.30;97.30;;;;;;5074402;28;20476;-72
2021/07/16 02:47:41;;;;;;;58.17;2.60;;;16.30;97.50;;;;;;5074465;28;20474;-72
2021/07/16 02:50:12;;;;;;;58.27;3.00;;;16.40;97.30;;;;;;5074818;28;20544;-72
2021/07/16 02:52:39;;;;;;;57.87;2.73;;;16.40;97.40;;;;;;5073964;28;20552;-72
2021/07/16 02:55:07;;;;;;;58.17;3.20;;;16.40;97.10;;;;;;5074267;28;20926;-72
2021/07/16 02:57:35;;;;;;;58.40;2.77;;;16.40;97.10;;;;;;5074008;28;20990;-72
2021/07/16 03:00:02;;;;;;;58.20;2.90;;;16.40;96.90;;;;;;5074222;28;20820;-72
2021/07/16 03:02:29;;;;;;;58.40;3.83;;;16.30;96.60;;;;;;5073571;28;20571;-72
2021/07/16 03:04:56;;;;;;;57.87;2.60;;;16.30;96.70;;;;;;5074324;28;20560;-72
2021/07/16 03:07:25;;;;;;;57.80;2.50;;;16.30;96.30;;;;;;5073848;28;20452;-72
2021/07/16 03:09:51;;;;;;;58.57;3.40;;;16.30;96.50;;;;;;5064059;28;20451;-71
2021/07/16 03:12:18;;;;;;;58.00;2.80;;;16.30;96.40;;;;;;5065047;28;20454;-72
2021/07/16 03:14:45;;;;;;;58.87;3.30;;;16.30;96.60;;;;;;5073659;28;20474;-72
2021/07/16 03:17:12;;;;;;;61.57;4.20;;;16.30;96.70;;;;;;5073823;28;20821;-72
2021/07/16 03:19:39;;;;;;;58.20;3.37;;;16.30;96.60;;;;;;5073594;28;20504;-71
2021/07/16 03:22:06;;;;;;;58.17;3.20;;;16.30;96.50;;;;;;5073223;28;20490;-72
2021/07/16 03:24:34;;;;;;;58.10;2.60;;;16.20;96.10;;;;;;5073722;28;20491;-72
2021/07/16 03:27:01;;;;;;;58.97;3.30;;;16.30;96.50;;;;;;5073710;28;20449;-72
2021/07/16 03:29:28;;;;;;;58.07;3.40;;;16.30;96.50;;;;;;5073576;28;20949;-72
2021/07/16 03:31:55;;;;;;;58.00;2.80;;;16.20;96.50;;;;;;5073141;28;20475;-72
2021/07/16 03:34:21;;;;;;;57.87;2.50;;;16.20;96.20;;;;;;5073262;28;20505;-72
2021/07/16 03:36:48;;;;;;;58.00;2.70;;;16.20;96.40;;;;;;5073590;28;20471;-71
2021/07/16 03:39:15;;;;;;;57.97;2.80;;;16.20;96.50;;;;;;5073329;28;20976;-71
2021/07/16 03:41:43;;;;;;;57.97;2.50;;;16.20;96.40;;;;;;5071411;28;20491;-72
2021/07/16 03:44:11;;;;;;;58.27;3.00;;;16.20;96.40;;;;;;5055454;28;20532;-72
2021/07/16 03:46:38;;;;;;;57.87;2.60;;;16.20;96.50;;;;;;5052529;28;20477;-72
2021/07/16 03:49:06;;;;;;;58.20;3.13;;;16.20;95.90;;;;;;5053416;28;20538;-71
2021/07/16 03:51:33;;;;;;;57.97;2.70;;;16.20;96.00;;;;;;5053027;28;20526;-72
2021/07/16 03:54:00;;;;;;;58.33;3.20;;;16.20;95.90;;;;;;5053092;28;20556;-71
2021/07/16 03:56:27;;;;;;;58.13;2.70;;;16.20;95.70;;;;;;5053122;28;20486;-71
2021/07/16 03:58:55;;;;;;;57.67;2.53;;;16.20;95.70;;;;;;5052920;28;21011;-71
2021/07/16 04:01:22;;;;;;;58.20;2.80;;;16.20;95.50;;;;;;5053065;28;20488;-72
2021/07/16 04:03:49;;;;;;;57.97;2.40;;;16.20;95.70;;;;;;5052672;28;20482;-71
2021/07/16 04:06:16;;;;;;;58.30;2.80;;;16.30;95.80;;;;;;5052773;28;20488;-69
2021/07/16 04:08:44;;;;;;;58.67;3.30;;;16.30;95.50;;;;;;5052969;28;20457;-69
2021/07/16 04:11:11;;;;;;;58.10;2.60;;;16.30;95.50;;;;;;5052261;28;20931;-72
2021/07/16 04:13:38;;;;;;;57.53;2.50;;;16.30;95.40;;;;;;5054297;28;20534;-71
2021/07/16 04:16:06;;;;;;;58.57;2.83;;;16.30;95.30;;;;;;5072827;28;20453;-72
2021/07/16 04:18:33;;;;;;;59.33;3.37;;;16.30;95.00;;;;;;5072934;28;20869;-71
2021/07/16 04:21:00;;;;;;;57.97;2.70;;;16.30;94.90;;;;;;5072563;28;20480;-71
2021/07/16 04:23:27;;;;;;;58.20;2.80;;;16.30;94.60;;;;;;5072213;28;20795;-71
2021/07/16 04:25:53;;;;;;;58.00;2.80;;;16.30;94.80;;;;;;5072409;28;20454;-71
2021/07/16 04:28:20;;;;;;;59.80;2.97;;;16.30;94.60;;;;;;5072270;28;20535;-71
2021/07/16 04:30:47;;;;;;;58.60;3.23;;;16.30;94.40;;;;;;5072346;28;20537;-72
2021/07/16 04:33:15;;;;;;;58.47;3.30;;;16.30;94.20;;;;;;5072249;28;20492;-71
2021/07/16 04:35:42;;;;;;;57.67;2.60;;;16.30;94.40;;;;;;5072101;28;20478;-71
2021/07/16 04:38:09;;;;;;;58.00;2.30;;;16.30;94.10;;;;;;5072326;28;20468;-71
2021/07/16 04:40:36;;;;;;;58.10;2.73;;;16.30;94.00;;;;;;5072100;28;20485;-72
2021/07/16 04:43:04;;;;;;;58.07;2.70;;;16.30;93.90;;;;;;5070536;28;20535;-71
2021/07/16 04:45:37;;;;;;;58.07;2.43;;;16.40;93.70;;;;;;5065870;28;20486;-71
2021/07/16 04:48:06;;;;;;;57.83;2.40;;;16.30;93.50;;;;;;5052273;28;20834;-71
2021/07/16 04:50:34;;;;;;;59.17;3.10;;;16.40;93.20;;;;;;5052104;28;20450;-72
2021/07/16 04:53:01;;;;;;;58.20;3.10;;;16.30;93.40;;;;;;5051821;28;20446;-71
2021/07/16 04:55:28;;;;;;;58.03;2.90;;;16.40;93.50;;;;;;5051728;28;20473;-71
2021/07/16 04:57:55;;;;;;;58.10;2.60;;;16.50;93.70;;;;;;5051601;28;20489;-71
2021/07/16 05:00:23;;;;;;;58.20;2.50;;;16.50;93.60;;;;;;5051719;28;20533;-71
2021/07/16 05:02:49;;;;;;;58.93;3.90;;;16.50;93.30;;;;;;5051576;28;20593;-71
2021/07/16 05:05:16;;;;;;;57.83;2.93;;;16.50;92.80;;;;;;5051711;28;20557;-72
2021/07/16 05:07:45;;;;;;;58.20;2.97;;;16.50;92.50;;;;;;5051741;28;20537;-71
2021/07/16 05:10:12;;;;;;;58.50;3.23;;;16.50;92.00;;;;;;5051976;28;20831;-71
2021/07/16 05:12:41;;;;;;;58.50;2.87;;;16.50;91.80;;;;;;5051797;28;20486;-71
2021/07/16 05:15:09;;;;;;;57.80;2.40;;;16.50;91.60;;;;;;5050510;28;20942;-71
2021/07/16 05:17:37;;;;;;;57.87;2.40;;;16.50;92.00;;;;;;5051636;28;20463;-72
2021/07/16 05:20:06;;;;;;;58.00;2.50;;;16.50;92.10;;;;;;5051693;28;20442;-72
2021/07/16 05:22:33;;;;;;;58.17;2.50;;;16.50;92.20;;;;;;5051105;28;20835;-71
2021/07/16 05:25:02;;;;;;;57.93;2.50;;;16.50;92.10;;;;;;5051699;28;20560;-71
2021/07/16 05:27:29;;;;;;;58.40;3.60;;;16.50;92.20;;;;;;5051732;28;20534;-71
2021/07/16 05:29:55;;;;;;;57.90;2.53;;;16.60;92.60;;;;;;5051705;28;20468;-71
2021/07/16 05:32:22;;;;;;;58.57;3.10;;;16.60;92.30;;;;;;5051364;28;20458;-72
2021/07/16 05:34:49;;;;;;;58.40;3.13;;;16.70;92.40;;;;;;5051305;28;20473;-71
2021/07/16 05:37:16;;;;;;;57.87;2.70;;;16.80;92.30;;;;;;5051701;28;20906;-71
2021/07/16 05:39:43;;;;;;;58.00;2.80;;;16.80;91.30;;;;;;5051454;28;20457;-72
2021/07/16 05:42:11;;;;;;;59.00;3.47;;;16.90;90.60;;;;;;5051188;28;20477;-71
2021/07/16 05:44:38;;;;;;;58.30;3.30;;;16.90;89.80;;;;;;5051117;28;20554;-72
2021/07/16 05:47:05;;;;;;;58.07;2.80;;;16.90;88.80;;;;;;5066769;28;20450;-71
2021/07/16 05:49:32;;;;;;;57.83;2.60;;;16.90;88.10;;;;;;5070989;28;20458;-72
2021/07/16 05:51:59;;;;;;;57.90;2.60;;;17.00;87.30;;;;;;5070768;28;20440;-71
2021/07/16 05:54:26;;;;;;;58.37;3.17;;;17.00;86.90;;;;;;5070743;28;20477;-72
2021/07/16 05:56:53;;;;;;;58.07;2.50;;;17.00;86.90;;;;;;5070684;28;20545;-72
2021/07/16 05:59:21;;;;;;;57.83;2.70;;;17.10;87.00;;;;;;5071111;28;21032;-72
2021/07/16 06:01:48;;;;;;;57.80;2.60;;;17.20;86.40;;;;;;5070975;28;20453;-72
2021/07/16 06:04:15;;;;;;;59.57;5.20;;;17.20;85.60;;;;;;5070858;28;20485;-71
2021/07/16 06:06:42;;;;;;;58.10;2.60;;;17.30;83.90;;;;;;5071466;28;20452;-72
2021/07/16 06:09:09;;;;;;;58.27;3.60;;;17.40;82.00;;;;;;5071410;28;20474;-71
2021/07/16 06:11:36;;;;;;;58.20;2.93;;;17.50;81.90;;;;;;5074517;28;20461;-71
2021/07/16 06:14:03;;;;;;;58.30;2.90;;;17.70;82.50;;;;;;5075300;28;20556;-71
2021/07/16 06:16:32;;;;;;;57.80;3.10;;;17.80;81.20;;;;;;5068914;28;20903;-72
2021/07/16 06:18:59;;;;;;;58.60;3.70;;;17.90;76.20;;;;;;5061869;28;20450;-72
2021/07/16 06:21:26;;;;;;;58.30;3.30;;;18.00;71.50;;;;;;5074805;28;20537;-71
2021/07/16 06:23:53;;;;;;;59.10;3.70;;;18.00;69.00;;;;;;5074766;28;20861;-72
2021/07/16 06:26:20;;;;;;;58.30;3.60;;;18.00;65.30;;;;;;5074792;28;20511;-72
2021/07/16 06:28:47;;;;;;;58.50;3.30;;;18.00;61.90;;;;;;5074757;28;20456;-72
2021/07/16 06:31:14;;;;;;;58.40;3.27;;;18.00;60.00;;;;;;5074861;28;20450;-71
2021/07/16 06:33:42;;;;;;;58.40;3.17;;;18.00;57.50;;;;;;5074242;28;20453;-71
2021/07/16 06:36:09;;;;;;;58.07;2.80;;;18.00;52.20;;;;;;5074729;28;20481;-71
2021/07/16 06:38:36;;;;;;;58.13;2.80;;;18.10;50.20;;;;;;5074458;28;20528;-71
2021/07/16 06:41:03;;;;;;;60.97;4.00;;;18.10;47.70;;;;;;5074543;28;20459;-71
2021/07/16 06:43:30;;;;;;;58.10;2.50;;;18.10;45.90;;;;;;5073695;28;20482;-72
2021/07/16 06:45:57;;;;;;;58.10;2.70;;;18.20;47.50;;;;;;5074108;28;20544;-72
2021/07/16 06:48:23;;;;;;;58.40;3.10;;;18.40;46.90;;;;;;5074287;28;20538;-72
2021/07/16 06:50:52;;;;;;;58.40;2.87;;;18.50;34.00;;;;;;5074547;28;20478;-72
2021/07/16 06:53:18;;;;;;;58.67;3.57;;;18.60;20.60;;;;;;5061054;28;20530;-72
2021/07/16 06:55:45;;;;;;;58.20;2.60;;;18.60;12.50;;;;;;5066603;28;20469;-72
2021/07/16 06:58:12;;;;;;;58.60;3.93;;;18.70;12.20;;;;;;5074074;28;20879;-72
2021/07/16 07:00:39;;;;;;;58.43;2.97;;;18.80;8.80;;;;;;5074073;28;20526;-73
2021/07/16 07:03:06;;;;;;;58.60;3.03;;;18.90;6.20;;;;;;5073822;28;20538;-72
2021/07/16 07:05:33;;;;;;;58.07;2.80;;;18.90;4.40;;;;;;5074141;28;20471;-73
2021/07/16 07:08:01;;;;;;;59.37;4.00;;;19.00;1.00;;;;;;5074190;28;20879;-72
2021/07/16 07:10:28;;;;;;;58.23;2.50;;;19.00;1.00;;;;;;5074047;28;20530;-73
2021/07/16 07:12:55;;;;;;;58.20;2.80;;;19.00;1.00;;;;;;5073470;28;20538;-73
2021/07/16 07:15:22;;;;;;;58.07;3.10;;;19.00;1.00;;;;;;5073969;28;20564;-73
2021/07/16 07:17:48;;;;;;;58.70;3.57;;;19.10;1.00;;;;;;5073939;28;20926;-73
2021/07/16 07:20:15;;;;;;;60.03;3.43;;;19.20;1.00;;;;;;5073776;28;20527;-72
2021/07/16 07:22:42;;;;;;;59.33;3.90;;;19.30;1.00;;;;;;5072797;28;20670;-73
2021/07/16 07:25:11;;;;;;;58.97;3.27;;;19.50;1.00;;;;;;5072134;28;20562;-73
2021/07/16 07:27:38;;;;;;;58.37;3.17;;;19.80;1.00;;;;;;5073692;28;20447;-73
2021/07/16 07:30:07;;;;;;;59.17;3.53;;;20.00;1.00;;;;;;5073864;28;20543;-72
2021/07/16 07:32:35;;;;;;;58.20;2.90;;;20.20;1.00;;;;;;5073342;28;20445;-72
2021/07/16 07:35:02;;;;;;;57.87;3.00;;;20.30;1.00;;;;;;5073452;28;20555;-73
2021/07/16 07:37:28;;;;;;;58.17;2.47;;;20.40;1.00;;;;;;5073402;28;20484;-73
2021/07/16 07:39:55;;;;;;;59.33;3.57;;;20.50;1.00;;;;;;5073388;28;20451;-73
2021/07/16 07:42:25;;;;;;;58.00;2.37;;;20.50;1.00;;;;;;5073293;28;20524;-73
2021/07/16 07:44:54;;;;;;;58.37;2.77;;;20.70;1.00;;;;;;5073407;28;20471;-74
2021/07/16 07:47:21;;;;;;;58.07;2.60;;;20.90;1.00;;;;;;5073376;28;20461;-70
2021/07/16 07:49:49;;;;;;;58.67;3.00;;;21.10;1.00;;;;;;5073351;28;20884;-70
2021/07/16 07:52:16;;;;;;;57.97;2.63;;;21.20;1.00;;;;;;5072905;28;20448;-73
2021/07/16 07:54:43;;;;;;;58.03;2.60;;;21.30;1.00;;;;;;5071497;28;21057;-72
2021/07/16 07:57:10;;;;;;;57.57;2.50;;;21.40;1.00;;;;;;5065262;28;20950;-72
2021/07/16 07:59:38;;;;;;;58.37;3.13;;;21.40;1.00;;;;;;5053249;28;20554;-70
2021/07/16 08:02:05;;;;;;;59.03;3.30;;;21.40;1.00;;;;;;5052769;28;20542;-70
2021/07/16 08:04:32;;;;;;;58.53;2.80;;;21.30;1.00;;;;;;5052785;28;20497;-72
2021/07/16 08:06:59;;;;;;;57.77;2.90;;;21.20;1.00;;;;;;5052936;28;20452;-72
2021/07/16 08:09:26;;;;;;;58.23;2.80;;;21.10;1.00;;;;;;5053162;28;20446;-73
2021/07/16 08:11:53;;;;;;;58.07;2.50;;;21.00;1.00;;;;;;5052547;28;20461;-73
2021/07/16 08:14:20;;;;;;;57.97;2.70;;;20.90;1.00;;;;;;5053010;28;20466;-72
2021/07/16 08:16:48;;;;;;;58.10;2.60;;;20.90;1.00;;;;;;5052989;28;20447;-73
2021/07/16 08:19:18;;;;;;;57.80;2.90;;;21.00;1.00;;;;;;5052880;28;20446;-73
2021/07/16 08:21:46;;;;;;;58.60;2.80;;;21.00;1.00;;;;;;5050949;28;20450;-72
2021/07/16 08:24:13;;;;;;;58.13;2.70;;;21.10;1.00;;;;;;5052315;28;21143;-70
2021/07/16 08:26:40;;;;;;;57.87;2.97;;;21.20;1.00;;;;;;5052670;28;20846;-70
2021/07/16 08:29:07;;;;;;;58.73;3.50;;;21.20;1.00;;;;;;5052617;28;20452;-70
2021/07/16 08:31:34;;;;;;;58.50;3.30;;;21.20;1.00;;;;;;5052145;28;20469;-71
2021/07/16 08:34:03;;;;;;;58.03;2.33;;;21.20;1.00;;;;;;5051283;28;20460;-70
2021/07/16 08:36:30;;;;;;;59.73;4.63;;;21.00;1.00;;;;;;5052311;28;21024;-71
2021/07/16 08:38:57;;;;;;;58.80;2.60;;;20.90;1.00;;;;;;5052540;28;20481;-71
2021/07/16 08:41:24;;;;;;;58.07;2.47;;;20.90;1.00;;;;;;5052183;28;20489;-71
2021/07/16 08:43:51;;;;;;;57.37;2.50;;;21.00;1.00;;;;;;5052137;28;20489;-71
2021/07/16 08:46:19;;;;;;;57.97;2.70;;;21.10;1.00;;;;;;5052158;28;20544;-71
2021/07/16 08:48:48;;;;;;;58.27;3.37;;;21.30;1.00;;;;;;5052028;28;20892;-71
2021/07/16 08:51:17;;;;;;;58.07;2.40;;;21.50;1.00;;;;;;5050715;28;20459;-71
2021/07/16 08:53:47;;;;;;;57.67;2.10;;;21.80;1.00;;;;;;5051906;28;20452;-71
2021/07/16 08:56:15;;;;;;;58.07;2.67;;;22.10;1.00;;;;;;5052150;28;20448;-71
2021/07/16 08:58:41;;;;;;;58.10;2.67;;;22.30;1.00;;;;;;5052201;28;20943;-71
2021/07/16 09:01:09;;;;;;;58.37;3.30;;;22.60;1.00;;;;;;5051863;28;20534;-70
2021/07/16 09:03:37;;;;;;;58.10;2.90;;;22.90;1.00;;;;;;5051675;28;20835;-71
2021/07/16 09:06:06;;;;;;;59.67;3.57;;;23.00;1.00;;;;;;5051976;28;20543;-70
2021/07/16 09:08:34;;;;;;;58.53;2.70;;;22.80;1.00;;;;;;5051933;28;20511;-71
2021/07/16 09:11:01;;;;;;;58.10;2.47;;;22.60;1.00;;;;;;5051720;28;20495;-71
2021/07/16 09:13:30;;;;;;;58.07;2.30;;;22.50;1.00;;;;;;5051648;28;20527;-71
2021/07/16 09:15:59;;;;;;;57.80;2.50;;;22.50;1.00;;;;;;5051704;28;20475;-71
2021/07/16 09:18:28;;;;;;;58.07;2.37;;;22.60;1.00;;;;;;5051981;28;20457;-71
2021/07/16 09:21:09;;;;;;;57.83;2.23;;;22.70;1.00;;;;;;5051786;28;20897;-71
2021/07/16 09:23:39;;;;;;;57.73;2.63;;;22.80;1.00;;;;;;5049804;28;21043;-71
2021/07/16 09:26:10;;;;;;;58.17;2.70;;;22.90;1.00;;;;;;5051472;28;20459;-71
2021/07/16 09:28:37;;;;;;;57.73;2.47;;;23.10;1.00;;;;;;5051820;28;20447;-71
2021/07/16 09:31:14;;;;;;;57.60;2.63;;;23.10;1.00;;;;;;5051478;28;21000;-71
2021/07/16 09:33:43;;;;;;;58.13;2.40;;;23.10;1.00;;;;;;5051605;28;20531;-71
2021/07/16 09:36:10;;;;;;;57.87;2.50;;;23.00;1.00;;;;;;5051589;28;20486;-71
2021/07/16 09:38:38;;;;;;;57.83;2.50;;;22.90;1.00;;;;;;5051492;28;20824;-71
2021/07/16 09:41:08;;;;;;;57.63;2.70;;;23.00;1.00;;;;;;5051434;28;21001;-71
2021/07/16 09:43:35;;;;;;;58.70;3.27;;;22.90;1.00;;;;;;5051346;28;20491;-71
2021/07/16 09:46:03;;;;;;;58.73;2.70;;;22.90;1.00;;;;;;5054562;28;20455;-71
2021/07/16 09:48:33;;;;;;;58.03;2.40;;;22.90;1.00;;;;;;5055621;28;20919;-71
2021/07/16 09:51:17;;;;;;;57.83;2.40;;;23.00;1.00;;;;;;5055464;28;20501;-71
2021/07/16 09:53:49;;;;;;;57.90;3.23;;;23.00;1.00;;;;;;5053967;28;20527;-71
2021/07/16 09:56:18;;;;;;;57.67;2.40;;;23.20;1.00;;;;;;5055290;28;20936;-71
2021/07/16 09:58:45;;;;;;;57.93;2.33;;;23.40;1.00;;;;;;5055497;28;20454;-71
2021/07/16 10:01:12;;;;;;;58.43;3.80;;;23.50;1.00;;;;;;5055294;28;20449;-71
2021/07/16 10:03:41;;;;;;;57.97;2.60;;;23.60;1.00;;;;;;5054742;28;20597;-71
2021/07/16 10:06:12;;;;;;;58.23;2.60;;;23.70;1.00;;;;;;5055418;28;20538;-71
2021/07/16 10:08:40;;;;;;;57.93;2.50;;;23.60;1.00;;;;;;5055472;28;20448;-71
2021/07/16 10:11:09;;;;;;;58.07;2.27;;;23.50;1.00;;;;;;5055061;28;21051;-71
2021/07/16 10:13:38;;;;;;;57.40;2.20;;;23.70;1.00;;;;;;5054829;28;20533;-71
2021/07/16 10:16:05;;;;;;;58.70;3.00;;;24.30;1.00;;;;;;5055006;28;20486;-73
2021/07/16 10:18:33;;;;;;;58.17;2.30;;;24.90;1.00;;;;;;5054934;28;20905;-71
2021/07/16 10:21:00;;;;;;;58.10;2.67;;;25.20;1.00;;;;;;5054840;28;20536;-71
2021/07/16 10:23:28;;;;;;;58.17;2.60;;;25.50;1.00;;;;;;5054559;28;20482;-71
2021/07/16 10:25:55;;;;;;;57.80;2.30;;;25.80;1.00;;;;;;5053662;28;20908;-71
2021/07/16 10:28:35;;;;;;;57.97;2.20;;;26.00;1.00;;;;;;5054831;28;20536;-71
2021/07/16 10:31:03;;;;;;;58.10;2.57;;;26.20;1.00;;;;;;5054943;28;20457;-71
2021/07/16 10:33:34;;;;;;;57.77;2.30;;;26.40;1.00;;;;;;5054435;28;20492;-71
2021/07/16 10:36:01;;;;;;;58.10;2.20;;;26.30;1.00;;;;;;5054833;28;20461;-71
2021/07/16 10:38:33;;;;;;;57.67;2.40;;;26.40;1.00;;;;;;5054606;28;20537;-71
2021/07/16 10:41:01;;;;;;;57.80;2.40;;;27.20;1.00;;;;;;5054738;28;20476;-72
2021/07/16 10:43:43;;;;;;;57.73;2.17;;;28.60;1.00;;;;;;5054156;28;20479;-71
2021/07/16 10:46:34;;;;;;;57.77;2.47;;;30.20;1.00;;;;;;5054799;28;20526;-72
2021/07/16 10:49:02;;;;;;;57.77;2.60;;;31.60;1.00;;;;;;5054497;28;20455;-72
2021/07/16 10:51:30;;;;;;;58.20;2.83;;;32.20;1.00;;;;;;5054079;28;21108;-72
2021/07/16 10:53:59;;;;;;;58.10;2.30;;;31.70;1.00;;;;;;5054189;28;20481;-72
2021/07/16 10:56:40;;;;;;;57.90;2.50;;;30.80;1.00;;;;;;5051902;28;20533;-72
2021/07/16 10:59:10;;;;;;;57.80;2.37;;;29.60;1.00;;;;;;5054184;28;20487;-71
2021/07/16 11:01:39;;;;;;;57.87;2.60;;;28.70;1.00;;;;;;5053840;28;20945;-72
2021/07/16 11:04:07;;;;;;;57.80;2.20;;;27.70;1.00;;;;;;5053876;28;20495;-72
2021/07/16 11:06:52;;;;;;;57.67;2.40;;;26.70;1.00;;;;;;5054250;28;20801;-72
2021/07/16 11:09:36;;;;;;;57.90;2.13;;;25.60;1.00;;;;;;5054198;28;20865;-72
2021/07/16 11:12:26;;;;;;;57.63;2.30;;;24.70;1.00;;;;;;5053620;28;20480;-72
2021/07/16 11:14:56;;;;;;;58.10;2.70;;;24.10;1.00;;;;;;5054043;28;20464;-72
2021/07/16 11:17:32;;;;;;;58.00;2.30;;;24.20;1.00;;;;;;5054010;28;20453;-72
2021/07/16 11:20:29;;;;;;;58.13;2.27;;;25.50;1.00;;;;;;5053939;28;20449;-72
2021/07/16 11:23:02;;;;;;;57.90;2.40;;;27.40;1.00;;;;;;5041164;28;20550;-72
2021/07/16 11:25:29;;;;;;;57.67;2.03;;;28.80;1.00;;;;;;5053121;28;20574;-72
2021/07/16 11:27:57;;;;;;;57.70;2.10;;;30.00;1.00;;;;;;5073026;28;20483;-72
2021/07/16 11:30:26;;;;;;;57.90;2.30;;;30.80;1.00;;;;;;5072808;28;20453;-72
2021/07/16 11:33:01;;;;;;;57.77;2.33;;;31.40;1.00;;;;;;5073107;28;20963;-72
2021/07/16 11:35:28;;;;;;;57.63;2.20;;;31.50;1.00;;;;;;5073271;28;20561;-72
2021/07/16 11:37:55;;;;;;;57.17;2.00;;;32.00;1.00;;;;;;5073388;28;20443;-72
2021/07/16 11:40:24;;;;;;;57.57;2.13;;;32.60;1.00;;;;;;5073110;28;20455;-72
2021/07/16 11:42:53;;;;;;;57.67;2.60;;;32.90;1.00;;;;;;5072331;28;20538;-72
2021/07/16 11:45:22;;;;;;;57.67;2.20;;;32.60;1.00;;;;;;5073566;28;20491;-72
2021/07/16 11:47:50;;;;;;;57.80;2.40;;;31.30;1.00;;;;;;5073041;28;20533;-72
2021/07/16 11:50:18;;;;;;;58.37;2.60;;;30.10;1.00;;;;;;5073226;28;20452;-72
2021/07/16 11:52:47;;;;;;;57.47;2.20;;;29.10;1.00;;;;;;5071954;28;20909;-72
2021/07/16 11:55:16;;;;;;;57.63;2.50;;;28.40;1.00;;;;;;5072518;28;20971;-72
2021/07/16 11:57:47;;;;;;;57.83;2.30;;;28.00;1.00;;;;;;5062559;28;20928;-72
2021/07/16 12:00:15;;;;;;;58.17;2.40;;;27.90;1.00;;;;;;5064816;28;20822;-72
2021/07/16 12:02:42;;;;;;;58.00;2.40;;;27.90;1.00;;;;;;5072496;28;20447;-71
2021/07/16 12:05:12;;;;;;;57.70;2.13;;;27.70;1.00;;;;;;5072853;28;21077;-72
2021/07/16 12:07:41;;;;;;;58.33;2.70;;;27.30;1.00;;;;;;5072644;28;20449;-71
2021/07/16 12:10:10;;;;;;;57.97;2.20;;;26.80;1.00;;;;;;5072971;28;20537;-71
2021/07/16 12:12:38;;;;;;;57.57;2.10;;;26.20;1.00;;;;;;5072556;28;20537;-71
2021/07/16 12:15:07;;;;;;;57.83;2.20;;;25.80;1.00;;;;;;5072631;28;20472;-72
2021/07/16 12:17:36;;;;;;;57.97;2.50;;;25.40;1.00;;;;;;5073120;28;20449;-72
2021/07/16 12:20:06;;;;;;;58.00;2.30;;;25.10;1.00;;;;;;5072793;28;20444;-72
2021/07/16 12:22:35;;;;;;;57.73;2.17;;;25.80;1.00;;;;;;5072431;28;20534;-72
2021/07/16 12:25:05;;;;;;;57.77;2.10;;;27.90;1.00;;;;;;5072440;28;20515;-72
2021/07/16 12:27:32;;;;;;;57.87;2.70;;;29.40;1.00;;;;;;5072778;28;20446;-72
2021/07/16 12:30:01;;;;;;;57.80;2.30;;;30.10;1.00;;;;;;5071539;28;20458;-72
2021/07/16 12:32:39;;;;;;;57.93;2.57;;;31.40;1.00;;;;;;5072342;28;20443;-72
2021/07/16 12:35:21;;;;;;;57.53;2.20;;;32.00;1.00;;;;;;5072440;28;20548;-72
2021/07/16 12:37:52;;;;;;;57.47;2.17;;;32.10;1.00;;;;;;5072246;28;20809;-72
2021/07/16 12:40:21;;;;;;;57.77;2.20;;;32.70;1.00;;;;;;5072485;28;20461;-72
2021/07/16 12:43:11;;;;;;;57.53;2.20;;;32.40;1.00;;;;;;5072208;28;20529;-72
2021/07/16 12:45:47;;;;;;;57.47;2.03;;;31.40;1.00;;;;;;5072148;28;20489;-72